createdAt,value
2023-03-15T00:05:02.178Z,19.07
2023-03-15T00:11:12.092Z,19.12
2023-03-15T00:17:14.005Z,18.62
2023-03-15T00:23:16.032Z,18.44
2023-03-15T00:29:17.973Z,17.76
2023-03-15T00:35:20.687Z,17.57
2023-03-15T00:41:23.243Z,17.15
2023-03-15T00:47:25.307Z,16.80
2023-03-15T00:53:28.249Z,17.04
2023-03-15T00:59:34.678Z,16.02
2023-03-15T01:05:36.591Z,15.85
2023-03-15T01:11:38.306Z,15.97
2023-03-15T01:17:42.158Z,15.59
2023-03-15T01:23:44.276Z,15.58
2023-03-15T01:29:45.843Z,16.08
2023-03-15T01:35:48.740Z,15.70
2023-03-15T01:41:50.575Z,15.27
2023-03-15T01:47:52.783Z,14.65
2023-03-15T01:54:05.196Z,14.38
2023-03-15T02:00:19.238Z,14.59
2023-03-15T02:06:34.375Z,15.14
2023-03-15T02:12:41.511Z,14.78
2023-03-15T02:18:44.026Z,13.32
2023-03-15T02:25:21.304Z,14.06
2023-03-15T02:31:23.423Z,14.96
2023-03-15T02:37:25.511Z,14.55
2023-03-15T02:43:31.850Z,13.98
2023-03-15T02:49:39.962Z,14.19
2023-03-15T02:55:42.525Z,14.32
2023-03-15T03:01:45.207Z,14.02
2023-03-15T03:07:49.492Z,14.28
2023-03-15T03:13:51.109Z,14.09
2023-03-15T03:19:53.970Z,14.69
2023-03-15T03:26:01.582Z,15.18
2023-03-15T03:32:03.983Z,15.12
2023-03-15T03:38:07.932Z,14.55
2023-03-15T03:44:13.272Z,14.21
2023-03-15T03:50:15.851Z,13.90
2023-03-15T03:56:17.508Z,13.23
2023-03-15T04:02:19.577Z,14.05
2023-03-15T04:08:31.288Z,13.93
2023-03-15T04:14:33.444Z,14.17
2023-03-15T04:20:35.323Z,13.73
2023-03-15T04:26:37.486Z,13.80
2023-03-15T04:33:02.736Z,14.44
2023-03-15T04:39:23.033Z,14.53
2023-03-15T04:45:42.306Z,14.55
2023-03-15T04:52:07.399Z,14.49
2023-03-15T04:58:27.420Z,14.60
2023-03-15T05:04:55.196Z,14.53
2023-03-15T05:11:08.579Z,14.82
2023-03-15T05:17:27.297Z,14.70
2023-03-15T05:23:38.229Z,14.32
2023-03-15T05:29:50.739Z,14.50
2023-03-15T05:36:13.881Z,14.21
2023-03-15T05:42:35.380Z,13.89
2023-03-15T05:48:55.609Z,14.31
2023-03-15T05:55:20.760Z,14.28
2023-03-15T06:02:09.289Z,14.71
2023-03-15T06:08:19.416Z,14.83
2023-03-15T06:14:22.569Z,15.29
2023-03-15T06:20:29.042Z,14.90
2023-03-15T06:26:32.015Z,15.33
2023-03-15T06:32:36.959Z,15.24
2023-03-15T06:38:39.463Z,15.33
2023-03-15T06:44:43.871Z,14.88
2023-03-15T06:50:56.660Z,15.34
2023-03-15T06:57:00.724Z,15.14
2023-03-15T07:03:08.154Z,15.16
2023-03-15T07:09:16.951Z,15.12
2023-03-15T07:15:18.826Z,14.53
2023-03-15T07:21:25.157Z,14.07
2023-03-15T07:27:29.439Z,14.53
2023-03-15T07:33:35.150Z,14.90
2023-03-15T07:39:36.680Z,15.11
2023-03-15T07:45:38.287Z,16.65
2023-03-15T07:51:39.803Z,16.43
2023-03-15T07:57:41.358Z,15.74
2023-03-15T08:03:43.140Z,15.90
2023-03-15T08:09:45.643Z,15.60
2023-03-15T08:15:49.688Z,15.67
2023-03-15T08:21:53.228Z,15.74
2023-03-15T08:27:54.935Z,15.70
2023-03-15T08:33:56.713Z,16.07
2023-03-15T08:40:04.169Z,16.24
2023-03-15T08:46:05.817Z,15.34
2023-03-15T08:52:07.879Z,15.11
2023-03-15T08:58:09.434Z,16.22
2023-03-15T09:04:11.212Z,16.79
2023-03-15T09:10:32.466Z,16.86
2023-03-15T09:16:43.545Z,16.76
2023-03-15T09:22:54.538Z,16.47
2023-03-15T09:28:58.710Z,16.21
2023-03-15T09:35:00.266Z,15.23
2023-03-15T09:41:03.158Z,15.60
2023-03-15T09:47:23.410Z,16.33
2023-03-15T09:53:31.464Z,15.26
2023-03-15T09:59:35.807Z,15.75
2023-03-15T10:05:43.065Z,15.79
2023-03-15T10:11:50.007Z,15.81
2023-03-15T10:17:57.744Z,16.24
2023-03-15T10:24:00.691Z,16.28
2023-03-15T10:30:14.965Z,15.96
2023-03-15T10:36:19.492Z,15.81
2023-03-15T10:42:30.486Z,16.06
2023-03-15T10:48:34.364Z,16.38
2023-03-15T10:54:36.013Z,15.88
2023-03-15T11:00:37.640Z,15.92
2023-03-15T11:06:46.363Z,16.49
2023-03-15T11:12:48.052Z,16.77
2023-03-15T11:19:03.261Z,16.95
2023-03-15T11:25:11.437Z,16.18
2023-03-15T11:31:13.527Z,16.73
2023-03-15T11:37:39.364Z,16.33
2023-03-15T11:43:49.062Z,16.17
2023-03-15T11:49:55.613Z,17.14
2023-03-15T11:56:18.920Z,17.62
2023-03-15T12:02:20.672Z,17.10
2023-03-15T12:08:41.044Z,17.92
2023-03-15T12:14:44.287Z,17.56
2023-03-15T12:21:05.908Z,17.41
2023-03-15T12:27:18.684Z,17.98
2023-03-15T12:33:21.788Z,17.44
2023-03-15T12:39:45.767Z,16.25
2023-03-15T12:45:47.682Z,16.86
2023-03-15T12:52:00.722Z,17.14
2023-03-15T12:58:02.568Z,17.84
2023-03-15T13:04:04.284Z,18.27
2023-03-15T13:10:19.044Z,18.18
2023-03-15T13:16:35.381Z,17.50
2023-03-15T13:23:05.657Z,17.60
2023-03-15T13:29:14.464Z,17.20
2023-03-15T13:35:23.378Z,18.16
2023-03-15T13:41:27.776Z,16.89
2023-03-15T13:47:30.598Z,16.62
2023-03-15T13:53:48.634Z,16.61
2023-03-15T14:00:10.406Z,16.73
2023-03-15T14:06:21.146Z,17.15
2023-03-15T14:12:22.644Z,17.09
2023-03-15T14:18:38.806Z,17.07
2023-03-15T14:24:42.295Z,16.67
2023-03-15T14:30:51.488Z,16.45
2023-03-15T14:36:59.140Z,17.02
2023-03-15T14:43:02.146Z,16.10
2023-03-15T14:49:04.516Z,15.58
2023-03-15T14:55:08.557Z,15.68
2023-03-15T15:01:15.657Z,15.58
2023-03-15T15:07:19.662Z,15.85
2023-03-15T15:13:27.112Z,15.56
2023-03-15T15:19:28.600Z,15.43
2023-03-15T15:25:33.110Z,15.71
2023-03-15T15:31:34.680Z,15.15
2023-03-15T15:37:36.335Z,14.68
2023-03-15T15:43:37.943Z,15.34
2023-03-15T15:49:41.433Z,15.29
2023-03-15T15:55:43.639Z,15.13
2023-03-15T16:01:59.441Z,15.01
2023-03-15T16:08:03.586Z,15.04
2023-03-15T16:14:06.716Z,15.03
2023-03-15T16:20:10.952Z,15.49
2023-03-15T16:26:14.793Z,15.40
2023-03-15T16:32:32.960Z,14.89
2023-03-15T16:38:41.837Z,14.62
2023-03-15T16:44:43.892Z,14.59
2023-03-15T16:50:45.924Z,14.48
2023-03-15T16:56:48.171Z,14.84
2023-03-15T17:02:53.652Z,14.68
2023-03-15T17:09:01.112Z,14.57
2023-03-15T17:15:04.339Z,14.47
2023-03-15T17:21:07.648Z,14.47
2023-03-15T17:27:21.576Z,14.72
2023-03-15T17:33:25.478Z,14.43
2023-03-15T17:39:27.234Z,14.50
2023-03-15T17:45:31.363Z,14.40
2023-03-15T17:51:35.900Z,14.60
2023-03-15T17:57:40.455Z,14.51
2023-03-15T18:03:52.896Z,14.41
2023-03-15T18:09:56.259Z,14.44
2023-03-15T18:16:06.251Z,14.48
2023-03-15T18:22:14.712Z,14.60
2023-03-15T18:28:18.340Z,14.26
2023-03-15T18:34:23.605Z,14.23
2023-03-15T18:40:32.650Z,14.24
2023-03-15T18:46:36.260Z,14.23
2023-03-15T18:52:38.457Z,14.32
2023-03-15T18:58:40.267Z,14.23
2023-03-15T19:04:44.340Z,14.34
2023-03-15T19:10:46.771Z,14.32
2023-03-15T19:16:50.676Z,14.12
2023-03-15T19:22:52.664Z,13.92
2023-03-15T19:28:57.006Z,14.31
2023-03-15T19:34:58.687Z,14.25
2023-03-15T19:41:04.820Z,14.32
2023-03-15T19:47:14.366Z,14.17
2023-03-15T19:53:16.074Z,14.18
2023-03-15T19:59:18.925Z,14.11
2023-03-15T20:05:21.390Z,13.91
2023-03-15T20:11:28.579Z,13.90
2023-03-15T20:17:31.444Z,13.76
2023-03-15T20:23:34.384Z,13.68
2023-03-15T20:29:37.343Z,13.69
2023-03-15T20:35:42.781Z,13.75
2023-03-15T20:41:45.815Z,13.83
2023-03-15T20:47:47.851Z,13.73
2023-03-15T20:53:50.633Z,13.83
2023-03-15T20:59:53.004Z,13.80
2023-03-15T21:05:54.540Z,13.74
2023-03-15T21:11:57.788Z,13.84
2023-03-15T21:17:59.343Z,13.62
2023-03-15T21:24:01.663Z,13.39
2023-03-15T21:30:03.683Z,13.45
2023-03-15T21:36:06.675Z,13.54
2023-03-15T21:42:11.421Z,13.43
2023-03-15T21:48:13.467Z,13.58
2023-03-15T21:54:17.655Z,13.43
2023-03-15T22:00:20.278Z,13.54
2023-03-15T22:06:22.266Z,13.49
2023-03-15T22:12:25.068Z,13.46
2023-03-15T22:18:27.994Z,13.56
2023-03-15T22:24:35.505Z,13.45
2023-03-15T22:30:37.283Z,13.56
2023-03-15T22:36:39.002Z,13.41
2023-03-15T22:42:41.911Z,13.32
2023-03-15T22:48:43.590Z,12.66
2023-03-15T22:54:45.336Z,12.64
2023-03-15T23:00:49.833Z,12.22
2023-03-15T23:06:51.435Z,12.66
2023-03-15T23:12:52.875Z,12.41
2023-03-15T23:18:54.791Z,12.31
2023-03-15T23:24:57.321Z,12.67
2023-03-15T23:31:01.062Z,12.30
2023-03-15T23:37:05.800Z,12.67
2023-03-15T23:43:08.768Z,12.61
2023-03-15T23:49:18.016Z,12.82
2023-03-15T23:55:22.952Z,12.52
